createdAt,value
2022-11-21T00:02:35.497Z,-0.84
2022-11-21T00:05:07.545Z,-0.80
2022-11-21T00:07:38.975Z,-0.73
2022-11-21T00:10:09.854Z,-0.80
2022-11-21T00:12:42.895Z,-0.80
2022-11-21T00:15:14.058Z,-0.58
2022-11-21T00:17:48.444Z,-0.58
2022-11-21T00:20:20.629Z,-0.62
2022-11-21T00:22:52.151Z,-0.62
2022-11-21T00:25:23.753Z,-0.56
2022-11-21T00:27:55.886Z,-0.65
2022-11-21T00:30:27.165Z,-0.60
2022-11-21T00:33:02.094Z,-0.56
2022-11-21T00:35:32.829Z,-0.71
2022-11-21T00:38:03.676Z,-0.52
2022-11-21T00:40:36.215Z,-0.59
2022-11-21T00:43:06.749Z,-0.43
2022-11-21T00:45:40.929Z,-0.56
2022-11-21T00:48:11.431Z,-0.54
2022-11-21T00:50:44.892Z,-0.56
2022-11-21T00:53:15.581Z,-0.50
2022-11-21T00:55:46.456Z,-0.56
2022-11-21T00:58:18.621Z,-0.52
2022-11-21T01:00:51.532Z,-0.59
2022-11-21T01:03:22.812Z,-0.76
2022-11-21T01:05:54.163Z,-0.82
2022-11-21T01:08:26.259Z,-0.87
2022-11-21T01:10:57.907Z,-0.82
2022-11-21T01:13:29.982Z,-0.86
2022-11-21T01:16:19.297Z,-0.64
2022-11-21T01:18:50.906Z,-0.62
2022-11-21T01:21:26.085Z,-0.64
2022-11-21T01:24:00.099Z,-0.80
2022-11-21T01:26:33.195Z,-0.94
2022-11-21T01:29:06.449Z,-0.72
2022-11-21T01:31:36.983Z,-0.75
2022-11-21T01:34:09.080Z,-0.78
2022-11-21T01:36:39.778Z,-0.90
2022-11-21T01:39:13.135Z,-0.88
2022-11-21T01:41:46.593Z,-0.94
2022-11-21T01:44:30.619Z,-0.98
2022-11-21T01:47:02.875Z,-0.94
2022-11-21T01:49:35.857Z,-0.88
2022-11-21T01:52:12.434Z,-0.91
2022-11-21T01:54:58.879Z,-0.83
2022-11-21T01:57:36.133Z,-0.92
2022-11-21T02:00:13.022Z,-0.82
2022-11-21T02:02:48.161Z,-0.79
2022-11-21T02:05:24.960Z,-0.78
2022-11-21T02:08:00.285Z,-0.74
2022-11-21T02:10:33.556Z,-0.60
2022-11-21T02:13:04.712Z,-0.61
2022-11-21T02:15:37.551Z,-0.53
2022-11-21T02:18:14.414Z,-0.36
2022-11-21T02:20:47.877Z,-0.33
2022-11-21T02:26:50.605Z,-0.40
2022-11-21T02:29:21.211Z,-0.28
2022-11-21T02:31:53.430Z,-0.49
2022-11-21T02:34:23.844Z,-0.61
2022-11-21T02:36:54.638Z,-0.62
2022-11-21T02:39:37.567Z,-0.64
2022-11-21T02:42:21.268Z,-0.64
2022-11-21T02:45:00.988Z,-0.56
2022-11-21T02:47:34.694Z,-0.56
2022-11-21T02:50:18.672Z,-0.47
2022-11-21T02:52:49.288Z,-0.52
2022-11-21T02:55:22.288Z,-0.54
2022-11-21T02:57:53.172Z,-0.48
2022-11-21T03:00:26.308Z,-0.52
2022-11-21T03:02:58.547Z,-0.66
2022-11-21T03:05:30.846Z,-0.67
2022-11-21T03:08:02.049Z,-0.72
2022-11-21T03:10:34.702Z,-0.64
2022-11-21T03:13:06.160Z,-0.56
2022-11-21T03:15:38.276Z,-0.58
2022-11-21T03:18:12.532Z,-0.56
2022-11-21T03:20:43.256Z,-0.54
2022-11-21T03:23:17.151Z,-0.42
2022-11-21T03:25:49.069Z,-0.40
2022-11-21T03:28:22.706Z,-0.42
2022-11-21T03:30:56.568Z,-0.46
2022-11-21T03:33:27.135Z,-0.48
2022-11-21T03:35:59.251Z,-0.45
2022-11-21T03:38:33.059Z,-0.42
2022-11-21T03:41:08.482Z,-0.28
2022-11-21T03:43:40.682Z,-0.24
2022-11-21T03:46:11.088Z,-0.31
2022-11-21T03:48:45.776Z,-0.24
2022-11-21T03:51:17.957Z,-0.26
2022-11-21T03:53:49.263Z,-0.58
2022-11-21T03:56:20.895Z,-0.55
2022-11-21T03:58:52.204Z,-0.66
2022-11-21T04:01:24.899Z,-0.68
2022-11-21T04:04:00.785Z,-0.57
2022-11-21T04:06:31.879Z,-0.46
2022-11-21T04:09:04.250Z,-0.50
2022-11-21T04:11:37.423Z,-0.48
2022-11-21T04:14:08.049Z,-0.50
2022-11-21T04:16:40.595Z,-0.44
2022-11-21T04:19:11.127Z,-0.52
2022-11-21T04:21:43.513Z,-0.48
2022-11-21T04:24:15.760Z,-0.54
2022-11-21T04:26:46.547Z,-0.51
2022-11-21T04:29:17.091Z,-0.38
2022-11-21T04:31:47.568Z,-0.19
2022-11-21T04:34:18.105Z,-0.30
2022-11-21T04:36:48.583Z,-0.24
2022-11-21T04:39:19.472Z,0.00
2022-11-21T04:41:54.374Z,-0.09
2022-11-21T04:44:28.763Z,-0.07
2022-11-21T04:47:05.265Z,-0.23
2022-11-21T04:49:35.294Z,-0.29
2022-11-21T04:52:10.089Z,-0.28
2022-11-21T04:54:43.106Z,-0.23
2022-11-21T04:57:14.786Z,-0.18
2022-11-21T04:59:46.391Z,0.02
2022-11-21T05:02:22.211Z,-0.04
2022-11-21T05:04:55.320Z,0.10
2022-11-21T05:07:28.749Z,0.00
2022-11-21T05:10:01.352Z,-0.13
2022-11-21T05:12:50.283Z,0.04
2022-11-21T05:15:24.798Z,0.11
2022-11-21T05:17:55.114Z,0.04
2022-11-21T05:20:27.826Z,0.12
2022-11-21T05:22:58.553Z,0.08
2022-11-21T05:25:29.569Z,0.06
2022-11-21T05:28:03.749Z,0.21
2022-11-21T05:30:35.967Z,0.21
2022-11-21T05:33:07.193Z,0.20
2022-11-21T05:35:43.100Z,0.36
2022-11-21T05:38:12.780Z,0.26
2022-11-21T05:40:44.763Z,0.49
2022-11-21T05:43:34.581Z,0.34
2022-11-21T05:46:05.477Z,0.21
2022-11-21T05:48:41.455Z,0.18
2022-11-21T05:51:12.802Z,0.30
2022-11-21T05:53:45.303Z,0.27
2022-11-21T05:56:18.774Z,0.30
2022-11-21T05:58:49.607Z,0.26
2022-11-21T06:01:21.693Z,0.28
2022-11-21T06:03:52.147Z,0.35
2022-11-21T06:06:27.938Z,0.20
2022-11-21T06:08:56.913Z,0.00
2022-11-21T06:11:27.495Z,0.02
2022-11-21T06:13:58.536Z,0.01
2022-11-21T06:16:29.287Z,-0.04
2022-11-21T06:19:03.812Z,0.20
2022-11-21T06:21:36.249Z,0.02
2022-11-21T06:24:08.340Z,0.24
2022-11-21T06:26:40.567Z,0.16
2022-11-21T06:29:15.599Z,0.08
2022-11-21T06:31:46.539Z,0.13
2022-11-21T06:34:18.677Z,0.16
2022-11-21T06:36:49.661Z,0.34
2022-11-21T06:39:23.177Z,0.22
2022-11-21T06:41:54.599Z,0.21
2022-11-21T06:44:26.809Z,0.18
2022-11-21T06:46:59.179Z,0.24
2022-11-21T06:49:30.042Z,0.17
2022-11-21T06:52:04.405Z,-0.11
2022-11-21T06:54:34.417Z,-0.06
2022-11-21T06:57:05.102Z,-0.11
2022-11-21T06:59:35.816Z,-0.26
2022-11-21T07:02:09.372Z,-0.27
2022-11-21T07:04:41.843Z,-0.44
2022-11-21T07:07:12.532Z,-0.50
2022-11-21T07:09:45.157Z,-0.58
2022-11-21T07:12:34.947Z,-0.73
2022-11-21T07:15:07.139Z,-0.80
2022-11-21T07:17:39.270Z,-0.72
2022-11-21T07:20:10.994Z,-0.91
2022-11-21T07:22:43.536Z,-0.89
2022-11-21T07:25:15.874Z,-0.81
2022-11-21T07:27:47.535Z,-0.84
2022-11-21T07:30:18.165Z,-0.68
2022-11-21T07:32:48.795Z,-0.65
2022-11-21T07:35:19.606Z,-0.64
2022-11-21T07:37:50.375Z,-0.64
2022-11-21T07:40:22.100Z,-0.77
2022-11-21T07:42:57.342Z,-0.72
2022-11-21T07:45:32.914Z,-0.63
2022-11-21T07:48:08.483Z,-0.55
2022-11-21T07:50:43.622Z,-0.36
2022-11-21T07:53:16.833Z,-0.46
2022-11-21T07:55:48.562Z,-0.30
2022-11-21T07:58:19.532Z,-0.44
2022-11-21T08:00:50.227Z,-0.47
2022-11-21T08:03:23.833Z,-0.64
2022-11-21T08:05:54.465Z,-0.86
2022-11-21T08:08:24.861Z,-0.94
2022-11-21T08:10:55.421Z,-0.98
2022-11-21T08:13:29.132Z,-1.12
2022-11-21T08:16:03.109Z,-1.14
2022-11-21T08:18:34.421Z,-1.22
2022-11-21T08:21:06.737Z,-0.94
2022-11-21T08:23:37.356Z,-0.92
2022-11-21T08:26:11.081Z,-0.81
2022-11-21T08:28:44.197Z,-0.78
2022-11-21T08:31:17.690Z,-0.66
2022-11-21T08:33:51.492Z,-0.50
2022-11-21T08:36:24.857Z,-0.63
2022-11-21T08:38:55.865Z,-0.46
2022-11-21T08:41:44.627Z,-0.34
2022-11-21T08:44:17.280Z,-0.45
2022-11-21T08:46:48.232Z,-0.52
2022-11-21T08:49:21.921Z,-0.86
2022-11-21T08:51:56.580Z,-0.74
2022-11-21T08:54:29.041Z,-0.73
2022-11-21T08:57:02.761Z,-0.28
2022-11-21T08:59:38.142Z,-0.21
2022-11-21T09:02:12.060Z,-0.43
2022-11-21T09:04:42.559Z,-0.24
2022-11-21T09:07:16.249Z,-0.56
2022-11-21T09:09:53.588Z,-0.82
2022-11-21T09:12:25.355Z,-0.49
2022-11-21T09:15:15.607Z,-0.70
2022-11-21T09:18:06.713Z,-0.81
2022-11-21T09:20:43.114Z,-0.94
2022-11-21T09:23:18.411Z,-1.20
2022-11-21T09:25:52.993Z,-1.01
2022-11-21T09:28:26.264Z,-0.96
2022-11-21T09:30:56.695Z,-0.88
2022-11-21T09:33:28.834Z,-0.90
2022-11-21T09:36:02.954Z,-0.74
2022-11-21T09:38:34.398Z,-0.75
2022-11-21T09:41:39.429Z,-0.97
2022-11-21T09:44:14.183Z,-0.86
2022-11-21T09:46:57.823Z,-0.74
2022-11-21T09:49:30.392Z,-0.66
2022-11-21T09:52:04.318Z,-0.38
2022-11-21T09:54:42.290Z,-0.78
2022-11-21T09:57:15.105Z,-1.06
2022-11-21T09:59:47.246Z,-0.98
2022-11-21T10:02:24.493Z,-0.88
2022-11-21T10:04:56.818Z,-0.86
2022-11-21T10:07:30.723Z,-1.08
2022-11-21T10:10:28.545Z,-1.08
2022-11-21T10:13:13.576Z,-1.03
2022-11-21T10:15:53.132Z,-1.12
2022-11-21T10:18:50.928Z,-1.15
2022-11-21T10:21:43.956Z,-1.27
2022-11-21T10:24:32.946Z,-1.32
2022-11-21T10:27:09.752Z,-0.99
2022-11-21T10:29:50.541Z,-0.52
2022-11-21T10:32:24.751Z,-0.78
2022-11-21T10:35:00.485Z,-0.85
2022-11-21T10:37:34.093Z,-0.86
2022-11-21T10:40:08.740Z,-0.84
2022-11-21T10:42:49.032Z,-1.16
2022-11-21T10:45:20.475Z,-1.08
2022-11-21T10:47:52.551Z,-1.16
2022-11-21T10:50:44.916Z,-0.98
2022-11-21T10:53:43.723Z,-1.10
2022-11-21T10:56:22.941Z,-1.22
2022-11-21T10:58:57.233Z,-1.36
2022-11-21T11:01:36.433Z,-1.26
2022-11-21T11:06:45.739Z,-1.17
2022-11-21T11:09:34.358Z,-0.88
2022-11-21T11:12:43.832Z,-0.90
2022-11-21T11:15:28.597Z,-0.75
2022-11-21T11:18:07.661Z,-0.65
2022-11-21T11:20:47.523Z,-0.54
2022-11-21T11:23:28.550Z,-0.39
2022-11-21T11:26:01.451Z,-0.08
2022-11-21T11:28:37.787Z,-0.12
2022-11-21T11:31:09.968Z,0.12
2022-11-21T11:33:58.009Z,0.26
2022-11-21T11:36:44.431Z,-0.08
2022-11-21T11:39:37.775Z,0.07
2022-11-21T11:42:54.282Z,0.24
2022-11-21T11:46:03.592Z,-0.06
2022-11-21T11:49:03.265Z,0.18
2022-11-21T11:51:28.401Z,0.16
2022-11-21T11:54:01.906Z,0.51
2022-11-21T11:56:39.837Z,0.42
2022-11-21T11:59:37.299Z,0.45
2022-11-21T12:02:25.749Z,0.55
2022-11-21T12:04:59.361Z,0.40
2022-11-21T12:10:14.217Z,0.23
2022-11-21T12:12:50.458Z,0.23
2022-11-21T12:15:41.729Z,0.12
2022-11-21T12:18:17.923Z,0.13
2022-11-21T12:21:05.973Z,0.16
2022-11-21T12:23:56.878Z,0.20
2022-11-21T12:26:55.954Z,-0.03
2022-11-21T12:29:37.842Z,-0.15
2022-11-21T12:32:43.599Z,0.06
2022-11-21T12:35:32.289Z,0.08
2022-11-21T12:38:18.168Z,0.14
2022-11-21T12:41:12.613Z,0.30
2022-11-21T12:43:47.116Z,0.32
2022-11-21T12:46:23.265Z,0.22
2022-11-21T12:49:16.621Z,0.24
2022-11-21T12:52:27.132Z,0.14
2022-11-21T12:55:12.810Z,0.12
2022-11-21T12:58:04.278Z,0.22
2022-11-21T13:00:53.219Z,0.27
2022-11-21T13:03:33.608Z,0.19
2022-11-21T13:06:06.969Z,0.18
2022-11-21T13:08:38.809Z,0.16
2022-11-21T13:11:47.230Z,0.12
2022-11-21T13:14:41.221Z,0.28
2022-11-21T13:17:20.418Z,0.04
2022-11-21T13:20:02.690Z,0.08
2022-11-21T13:22:48.648Z,-0.02
2022-11-21T13:25:35.160Z,-0.02
2022-11-21T13:28:22.101Z,-0.06
2022-11-21T13:30:54.848Z,0.02
2022-11-21T13:33:44.905Z,-0.18
2022-11-21T13:36:22.805Z,-0.11
2022-11-21T13:38:56.359Z,0.10
2022-11-21T13:41:59.676Z,-0.03
2022-11-21T13:44:36.587Z,-0.02
2022-11-21T13:47:28.580Z,-0.10
2022-11-21T13:50:31.232Z,-0.19
2022-11-21T13:53:22.924Z,-0.04
2022-11-21T13:56:02.653Z,0.01
2022-11-21T13:58:48.555Z,-0.06
2022-11-21T14:01:48.509Z,-0.26
2022-11-21T14:04:39.426Z,-0.19
2022-11-21T14:07:40.701Z,-0.18
2022-11-21T14:10:34.053Z,-0.12
2022-11-21T14:13:08.482Z,-0.14
2022-11-21T14:16:05.525Z,-0.14
2022-11-21T14:18:40.771Z,-0.04
2022-11-21T14:21:29.493Z,-0.17
2022-11-21T14:24:07.059Z,-0.54
2022-11-21T14:26:47.530Z,-0.74
2022-11-21T14:29:22.753Z,-0.62
2022-11-21T14:31:57.084Z,-0.76
2022-11-21T14:34:30.874Z,-0.87
2022-11-21T14:37:05.648Z,-0.89
2022-11-21T14:39:45.396Z,-0.64
2022-11-21T14:42:21.849Z,-0.56
2022-11-21T14:44:55.885Z,-0.52
2022-11-21T14:47:29.683Z,-0.50
2022-11-21T14:50:06.855Z,-0.86
2022-11-21T14:52:36.175Z,-0.96
2022-11-21T14:57:43.940Z,-0.74
2022-11-21T15:02:57.119Z,-0.80
2022-11-21T15:06:00.852Z,-0.69
2022-11-21T15:08:38.711Z,-0.56
2022-11-21T15:10:41.758Z,-0.42
2022-11-21T15:13:16.477Z,-0.28
2022-11-21T15:15:54.135Z,-0.38
2022-11-21T15:18:28.801Z,-0.12
2022-11-21T15:21:03.240Z,-0.07
2022-11-21T15:23:38.008Z,-0.20
2022-11-21T15:26:29.432Z,-0.14
2022-11-21T15:29:02.290Z,-0.28
2022-11-21T15:31:34.381Z,-0.28
2022-11-21T15:36:39.613Z,-0.23
2022-11-21T15:39:20.452Z,-0.38
2022-11-21T15:41:52.725Z,-0.34
2022-11-21T15:44:31.313Z,-0.72
2022-11-21T15:47:03.558Z,-0.98
2022-11-21T15:49:35.279Z,-0.91
2022-11-21T15:52:09.973Z,-0.90
2022-11-21T15:54:41.837Z,-0.89
2022-11-21T15:57:16.721Z,-0.95
2022-11-21T15:59:50.135Z,-1.04
2022-11-21T16:02:23.443Z,-0.78
2022-11-21T16:04:55.554Z,-0.86
2022-11-21T16:07:26.970Z,-0.88
2022-11-21T16:09:58.681Z,-0.88
2022-11-21T16:12:30.517Z,-0.64
2022-11-21T16:15:00.948Z,-0.61
2022-11-21T16:17:34.689Z,-0.74
2022-11-21T16:20:07.778Z,-0.68
2022-11-21T16:22:46.946Z,-0.68
2022-11-21T16:25:13.322Z,-0.64
2022-11-21T16:27:44.713Z,-0.35
2022-11-21T16:30:18.026Z,-0.66
2022-11-21T16:32:48.681Z,-0.66
2022-11-21T16:35:19.421Z,-0.73
2022-11-21T16:37:53.017Z,-0.82
2022-11-21T16:40:25.154Z,-0.90
2022-11-21T16:42:58.787Z,-0.92
2022-11-21T16:45:29.854Z,-0.99
2022-11-21T16:48:00.443Z,-0.90
2022-11-21T16:50:31.017Z,-0.94
2022-11-21T16:53:03.005Z,-0.93
2022-11-21T16:55:34.846Z,-1.06
2022-11-21T16:58:06.076Z,-1.12
2022-11-21T17:00:37.030Z,-1.19
2022-11-21T17:03:12.001Z,-1.19
2022-11-21T17:05:45.451Z,-1.18
2022-11-21T17:08:15.874Z,-1.24
2022-11-21T17:10:47.780Z,-1.08
2022-11-21T17:13:22.463Z,-1.04
2022-11-21T17:15:53.580Z,-1.14
2022-11-21T17:18:24.004Z,-1.16
2022-11-21T17:20:55.396Z,-1.10
2022-11-21T17:23:26.307Z,-1.18
2022-11-21T17:25:59.374Z,-1.18
2022-11-21T17:28:32.923Z,-1.18
2022-11-21T17:31:14.339Z,-1.24
2022-11-21T17:33:47.107Z,-1.24
2022-11-21T17:36:22.666Z,-1.30
2022-11-21T17:38:55.318Z,-1.28
2022-11-21T17:41:27.891Z,-1.28
2022-11-21T17:44:02.326Z,-1.30
2022-11-21T17:46:33.817Z,-1.36
2022-11-21T17:49:06.043Z,-1.37
2022-11-21T17:51:40.432Z,-1.38
2022-11-21T17:54:13.768Z,-1.38
2022-11-21T17:56:51.399Z,-1.38
2022-11-21T17:59:18.406Z,-1.38
2022-11-21T18:01:52.094Z,-1.42
2022-11-21T18:04:25.705Z,-1.44
2022-11-21T18:06:56.494Z,-1.39
2022-11-21T18:09:28.932Z,-1.34
2022-11-21T18:12:00.740Z,-1.42
2022-11-21T18:14:32.430Z,-1.42
2022-11-21T18:17:02.936Z,-1.40
2022-11-21T18:19:35.027Z,-1.38
2022-11-21T18:22:07.263Z,-1.40
2022-11-21T18:24:39.122Z,-1.43
2022-11-21T18:27:10.019Z,-1.42
2022-11-21T18:29:42.335Z,-1.40
2022-11-21T18:32:17.385Z,-1.38
2022-11-21T18:34:49.955Z,-1.31
2022-11-21T18:37:22.613Z,-1.38
2022-11-21T18:39:56.023Z,-1.30
2022-11-21T18:42:28.976Z,-1.42
2022-11-21T18:45:01.271Z,-1.38
2022-11-21T18:47:34.539Z,-1.36
2022-11-21T18:50:10.122Z,-1.30
2022-11-21T18:52:46.447Z,-1.30
2022-11-21T18:55:16.082Z,-1.18
2022-11-21T18:58:14.497Z,-1.33
2022-11-21T19:00:46.926Z,-1.37
2022-11-21T19:03:19.319Z,-1.25
2022-11-21T19:06:01.339Z,-1.26
2022-11-21T19:08:35.978Z,-1.18
2022-11-21T19:11:09.575Z,-1.14
2022-11-21T19:13:43.560Z,-1.21
2022-11-21T19:16:18.619Z,-1.06
2022-11-21T19:19:11.546Z,-1.20
2022-11-21T19:21:25.888Z,-1.11
2022-11-21T19:23:57.945Z,-1.14
2022-11-21T19:26:41.270Z,-1.13
2022-11-21T19:29:15.985Z,-1.11
2022-11-21T19:31:47.908Z,-1.04
2022-11-21T19:34:20.356Z,-1.02
2022-11-21T19:36:52.757Z,-0.92
2022-11-21T19:39:26.571Z,-0.94
2022-11-21T19:41:59.241Z,-0.96
2022-11-21T19:44:34.428Z,-0.90
2022-11-21T19:47:08.194Z,-0.96
2022-11-21T19:49:40.138Z,-0.96
2022-11-21T19:52:10.555Z,-0.98
2022-11-21T19:54:41.058Z,-1.00
2022-11-21T19:57:17.401Z,-0.99
2022-11-21T19:59:48.211Z,-0.97
2022-11-21T20:02:25.931Z,-1.12
2022-11-21T20:04:57.755Z,-1.04
2022-11-21T20:07:29.949Z,-1.02
2022-11-21T20:10:03.401Z,-0.98
2022-11-21T20:12:37.084Z,-1.10
2022-11-21T20:15:10.418Z,-1.12
2022-11-21T20:17:43.784Z,-1.16
2022-11-21T20:20:14.232Z,-1.14
2022-11-21T20:22:48.387Z,-1.18
2022-11-21T20:25:21.573Z,-1.08
2022-11-21T20:27:55.091Z,-1.16
2022-11-21T20:30:30.289Z,-1.06
2022-11-21T20:33:00.146Z,-1.06
2022-11-21T20:35:33.256Z,-0.96
2022-11-21T20:38:03.744Z,-0.85
2022-11-21T20:40:36.736Z,-0.88
2022-11-21T20:43:07.440Z,-0.87
2022-11-21T20:48:14.668Z,-0.82
2022-11-21T20:53:51.477Z,-0.90
2022-11-21T20:55:56.181Z,-0.94
2022-11-21T20:58:31.367Z,-0.98
2022-11-21T21:01:03.052Z,-1.01
2022-11-21T21:03:40.281Z,-1.00
2022-11-21T21:06:17.010Z,-1.02
2022-11-21T21:08:48.671Z,-1.02
2022-11-21T21:13:57.080Z,-1.08
2022-11-21T21:16:33.883Z,-1.02
2022-11-21T21:19:06.205Z,-0.88
2022-11-21T21:21:38.600Z,-0.77
2022-11-21T21:24:13.333Z,-0.84
2022-11-21T21:26:48.092Z,-0.75
2022-11-21T21:29:21.492Z,-0.74
2022-11-21T21:31:57.086Z,-0.73
2022-11-21T21:34:29.443Z,-0.69
2022-11-21T21:39:58.886Z,-0.76
2022-11-21T21:42:32.345Z,-0.73
2022-11-21T21:45:02.878Z,-0.72
2022-11-21T21:47:33.295Z,-0.74
2022-11-21T21:50:05.273Z,-0.62
2022-11-21T21:52:35.936Z,-0.62
2022-11-21T21:55:08.843Z,-0.68
2022-11-21T21:57:46.061Z,-0.64
2022-11-21T22:00:13.898Z,-0.68
2022-11-21T22:02:45.762Z,-0.72
2022-11-21T22:05:17.806Z,-0.70
2022-11-21T22:07:50.102Z,-0.70
2022-11-21T22:10:22.213Z,-0.68
2022-11-21T22:12:53.127Z,-0.66
2022-11-21T22:15:23.758Z,-0.71
2022-11-21T22:17:56.877Z,-0.75
2022-11-21T22:20:29.428Z,-0.85
2022-11-21T22:23:01.690Z,-0.98
2022-11-21T22:25:35.645Z,-0.99
2022-11-21T22:28:06.591Z,-1.08
2022-11-21T22:30:48.271Z,-1.14
2022-11-21T22:33:20.474Z,-1.13
2022-11-21T22:35:52.157Z,-1.12
2022-11-21T22:38:24.455Z,-1.17
2022-11-21T22:40:58.652Z,-1.19
2022-11-21T22:43:29.797Z,-1.17
2022-11-21T22:46:05.034Z,-1.24
2022-11-21T22:48:36.561Z,-1.24
2022-11-21T22:51:08.777Z,-1.33
2022-11-21T22:53:40.540Z,-1.36
2022-11-21T22:56:12.805Z,-1.36
2022-11-21T22:58:45.546Z,-1.38
2022-11-21T23:01:23.169Z,-1.34
2022-11-21T23:03:58.078Z,-1.30
2022-11-21T23:06:30.254Z,-1.38
2022-11-21T23:09:02.708Z,-1.40
2022-11-21T23:11:39.369Z,-1.49
2022-11-21T23:14:08.414Z,-1.54
2022-11-21T23:16:39.012Z,-1.54
2022-11-21T23:19:11.461Z,-1.57
2022-11-21T23:21:42.423Z,-1.58
2022-11-21T23:24:14.117Z,-1.63
2022-11-21T23:26:46.897Z,-1.67
2022-11-21T23:29:18.693Z,-1.68
2022-11-21T23:31:49.426Z,-1.69
2022-11-21T23:34:23.085Z,-1.66
2022-11-21T23:36:55.117Z,-1.58
2022-11-21T23:39:25.894Z,-1.64
2022-11-21T23:41:57.174Z,-1.62
2022-11-21T23:44:30.096Z,-1.56
2022-11-21T23:47:01.067Z,-1.66
2022-11-21T23:49:32.067Z,-1.66
2022-11-21T23:52:08.124Z,-1.54
2022-11-21T23:54:39.446Z,-1.52
2022-11-21T23:57:11.416Z,-1.50
2022-11-21T23:59:42.809Z,-1.44
